Time;durP1;ratioP1;P1;durP2;ratioP2;P2;SDS_P1;SDS_P2;PMS_P1;PMS_P2;Temp;Humidity;BMP_temperature;BMP_pressure;BME280_temperature;BME280_humidity;BME280_pressure;Samples;Min_cycle;Max_cycle;Signal;HPM_P1;HPM_P2
2022/09/06 00:00:27;;;;;;;41.72;7.38;;;;;;;22.52;100.00;98098.66;4965353;28;20054;-55
2022/09/06 00:02:52;;;;;;;44.40;7.43;;;;;;;22.13;100.00;98095.03;4966602;28;20038;-53
2022/09/06 00:05:18;;;;;;;40.28;7.30;;;;;;;21.86;100.00;98096.44;4965408;28;20034;-53
2022/09/06 00:07:43;;;;;;;41.28;7.22;;;;;;;22.29;100.00;98095.38;4969224;28;20035;-54
2022/09/06 00:10:09;;;;;;;45.45;7.57;;;;;;;21.98;100.00;98096.34;4970378;28;20037;-54
2022/09/06 00:12:35;;;;;;;34.83;7.00;;;;;;;21.73;100.00;98096.63;4969938;28;20358;-52
2022/09/06 00:15:02;;;;;;;44.83;7.55;;;;;;;22.03;100.00;98089.66;4969702;28;20539;-53
2022/09/06 00:17:27;;;;;;;37.97;7.30;;;;;;;21.87;100.00;98089.28;4967662;28;20046;-53
2022/09/06 00:19:53;;;;;;;50.45;8.20;;;;;;;21.48;100.00;98095.22;4969503;28;20038;-53
2022/09/06 00:22:18;;;;;;;36.60;7.38;;;;;;;21.59;100.00;98094.31;4970349;28;20507;-56
2022/09/06 00:24:43;;;;;;;44.65;7.60;;;;;;;21.86;100.00;98098.25;4971040;28;20038;-56
2022/09/06 00:27:09;;;;;;;44.22;8.07;;;;;;;22.07;100.00;98101.69;4967871;28;20133;-54
2022/09/06 00:29:35;;;;;;;40.90;7.35;;;;;;;21.52;100.00;98098.44;4969579;28;20058;-54
2022/09/06 00:32:00;;;;;;;42.38;8.20;;;;;;;21.54;100.00;98101.81;4967140;28;20153;-53
2022/09/06 00:34:27;;;;;;;45.33;7.80;;;;;;;21.96;100.00;98096.47;4970037;28;20038;-53
2022/09/06 00:36:53;;;;;;;37.42;7.47;;;;;;;21.58;100.00;98097.09;4969234;28;20070;-54
2022/09/06 00:39:18;;;;;;;43.20;7.10;;;;;;;21.33;100.00;98094.66;4967989;28;20122;-53
2022/09/06 00:41:43;;;;;;;44.22;8.15;;;;;;;21.23;100.00;98107.03;4969716;28;20058;-54
2022/09/06 00:44:09;;;;;;;56.80;8.82;;;;;;;21.34;100.00;98104.31;4968750;28;20031;-53
2022/09/06 00:46:37;;;;;;;42.45;7.70;;;;;;;21.36;100.00;98106.84;4969630;28;20035;-53
2022/09/06 00:49:11;;;;;;;45.78;7.75;;;;;;;21.42;100.00;98103.66;4970615;28;20035;-53
2022/09/06 00:51:37;;;;;;;41.83;7.45;;;;;;;21.67;100.00;98113.09;4954549;28;20034;-55
2022/09/06 00:54:07;;;;;;;38.35;7.68;;;;;;;21.56;100.00;98105.22;4968375;28;20085;-53
2022/09/06 00:56:37;;;;;;;35.75;7.47;;;;;;;21.14;100.00;98113.94;4968027;28;20046;-54
2022/09/06 00:59:03;;;;;;;33.75;7.18;;;;;;;21.18;100.00;98103.91;4970331;28;20030;-53
2022/09/06 01:01:28;;;;;;;49.03;8.32;;;;;;;21.32;100.00;98100.94;4968089;28;20043;-54
2022/09/06 01:03:54;;;;;;;46.55;8.13;;;;;;;21.31;100.00;98098.41;4970736;28;20049;-53
2022/09/06 01:06:28;;;;;;;44.25;7.78;;;;;;;21.73;100.00;98101.94;4970057;28;20042;-53
2022/09/06 01:09:15;;;;;;;39.15;7.82;;;;;;;21.59;100.00;98099.63;4967880;28;20038;-52
2022/09/06 01:11:55;;;;;;;33.53;7.05;;;;;;;22.05;100.00;98100.97;4969706;28;20116;-53
2022/09/06 01:14:44;;;;;;;41.22;7.70;;;;;;;21.36;100.00;98105.03;4968472;28;20030;-56
2022/09/06 01:17:37;;;;;;;36.65;7.47;;;;;;;21.41;100.00;98106.44;4969161;28;20038;-54
2022/09/06 01:20:11;;;;;;;;;;;;;;;21.35;100.00;98113.09;4969006;28;20504;-53
2022/09/06 01:22:45;;;;;;;43.17;8.25;;;;;;;21.21;100.00;98110.75;4967677;28;20878;-53
2022/09/06 01:25:38;;;;;;;38.80;7.40;;;;;;;21.27;100.00;98115.56;4968550;28;20069;-53
2022/09/06 01:28:22;;;;;;;40.70;7.38;;;;;;;21.71;100.00;98109.19;4968567;28;20042;-53
2022/09/06 01:30:56;;;;;;;45.80;8.38;;;;;;;21.30;100.00;98110.00;4967221;28;20112;-53
2022/09/06 01:33:30;;;;;;;49.20;8.40;;;;;;;21.18;100.00;98114.50;4970457;28;20023;-53
2022/09/06 01:36:07;;;;;;;38.20;7.68;;;;;;;21.47;100.00;98105.97;4969809;28;20039;-53
2022/09/06 01:38:34;;;;;;;43.70;7.78;;;;;;;21.32;100.00;98106.25;4969013;28;20050;-54
2022/09/06 01:40:59;;;;;;;43.90;8.15;;;;;;;21.19;100.00;98102.91;4967584;28;20138;-53
2022/09/06 01:43:36;;;;;;;35.88;7.30;;;;;;;20.68;100.00;98109.72;4970026;28;20039;-53
2022/09/06 01:46:25;;;;;;;39.35;7.65;;;;;;;20.67;100.00;98108.03;4967868;28;20026;-53
2022/09/06 01:48:54;;;;;;;49.05;8.85;;;;;;;21.09;100.00;98109.97;4967520;28;20105;-54
2022/09/06 01:51:41;;;;;;;39.75;7.45;;;;;;;21.58;100.00;98105.91;4968626;28;20038;-53
2022/09/06 01:54:24;;;;;;;37.22;7.22;;;;;;;21.21;100.00;98116.94;4968818;28;20503;-53
2022/09/06 01:57:10;;;;;;;39.85;7.57;;;;;;;20.80;100.00;98107.88;4966642;28;20030;-53
2022/09/06 01:59:44;;;;;;;37.85;7.50;;;;;;;20.21;100.00;98117.81;4966014;28;20070;-53
2022/09/06 02:02:44;;;;;;;36.03;7.35;;;;;;;20.89;100.00;98122.22;4969208;28;20751;-55
2022/09/06 02:05:44;;;;;;;39.60;7.72;;;;;;;20.87;100.00;98116.19;4967088;28;20145;-54
2022/09/06 02:08:50;;;;;;;48.00;8.43;;;;;;;20.67;100.00;98123.09;4955377;28;20153;-54
2022/09/06 02:11:16;;;;;;;45.30;8.65;;;;;;;20.26;100.00;98121.94;4951178;28;20141;-56
2022/09/06 02:13:47;;;;;;;38.97;8.13;;;;;;;20.14;100.00;98108.66;4969641;28;20137;-55
2022/09/06 02:16:17;;;;;;;50.25;9.10;;;;;;;20.20;100.00;98116.13;4967115;28;20076;-52
2022/09/06 02:18:57;;;;;;;34.05;7.45;;;;;;;20.45;100.00;98116.84;4967756;28;20116;-53
2022/09/06 02:21:29;;;;;;;45.20;8.25;;;;;;;20.64;100.00;98108.31;4965754;28;20781;-53
2022/09/06 02:23:58;;;;;;;44.55;8.15;;;;;;;20.52;100.00;98109.25;4966943;28;20858;-52
2022/09/06 02:26:27;;;;;;;49.63;8.52;;;;;;;19.95;100.00;98116.38;4967443;28;20046;-53
2022/09/06 02:28:54;;;;;;;35.97;7.72;;;;;;;20.00;100.00;98114.22;4967367;28;20552;-55
2022/09/06 02:31:25;;;;;;;48.38;9.32;;;;;;;19.97;100.00;98109.97;4966271;28;20130;-52
2022/09/06 02:33:51;;;;;;;42.40;7.95;;;;;;;20.48;100.00;98102.53;4966148;28;20137;-55
2022/09/06 02:36:17;;;;;;;44.78;8.48;;;;;;;20.19;100.00;98108.31;4967296;28;20405;-53
2022/09/06 02:38:44;;;;;;;36.22;7.57;;;;;;;20.11;100.00;98100.97;4968994;28;20061;-56
2022/09/06 02:41:11;;;;;;;37.22;8.20;;;;;;;20.30;100.00;98103.00;4966738;28;20106;-53
2022/09/06 02:43:36;;;;;;;45.20;8.32;;;;;;;20.40;100.00;98108.41;4966822;28;20026;-54
2022/09/06 02:46:02;;;;;;;37.85;8.23;;;;;;;20.12;100.00;98105.28;4968019;28;20034;-53
2022/09/06 02:48:27;;;;;;;50.58;8.80;;;;;;;20.03;100.00;98106.88;4982031;28;20033;-53
2022/09/06 02:50:53;;;;;;;48.03;8.93;;;;;;;20.10;100.00;98104.56;4966019;28;20034;-55
2022/09/06 02:53:18;;;;;;;42.00;8.43;;;;;;;20.16;100.00;98105.91;4968484;28;20026;-52
2022/09/06 02:55:47;;;;;;;43.85;8.55;;;;;;;20.02;100.00;98102.53;4966961;28;20754;-55
2022/09/06 02:58:14;;;;;;;42.00;9.00;;;;;;;19.86;100.00;98106.50;4967185;28;20772;-53
2022/09/06 03:00:40;;;;;;;44.95;9.10;;;;;;;20.16;100.00;98092.66;4965370;28;20616;-54
2022/09/06 03:03:05;;;;;;;41.55;8.05;;;;;;;19.98;100.00;98102.91;4967969;28;20096;-53
2022/09/06 03:05:31;;;;;;;47.15;9.10;;;;;;;19.99;100.00;98108.06;4965914;28;20064;-53
2022/09/06 03:07:57;;;;;;;36.72;7.13;;;;;;;20.72;100.00;98089.13;4966470;28;20031;-53
2022/09/06 03:10:23;;;;;;;38.50;8.18;;;;;;;20.41;100.00;98102.16;4965397;28;20081;-54
2022/09/06 03:12:49;;;;;;;47.72;8.57;;;;;;;20.62;100.00;98096.13;4966776;28;20023;-54
2022/09/06 03:15:15;;;;;;;38.40;8.73;;;;;;;19.53;100.00;98100.16;4982380;28;20035;-54
2022/09/06 03:17:41;;;;;;;52.42;9.65;;;;;;;19.86;100.00;98096.75;4965685;28;20023;-53
2022/09/06 03:20:08;;;;;;;45.10;8.18;;;;;;;20.25;100.00;98096.38;4964720;28;20540;-55
2022/09/06 03:22:35;;;;;;;43.67;8.35;;;;;;;20.60;100.00;98097.09;4965788;28;20162;-53
2022/09/06 03:25:00;;;;;;;42.38;8.70;;;;;;;20.49;100.00;98096.25;4966225;28;20100;-52
2022/09/06 03:27:26;;;;;;;45.85;9.25;;;;;;;19.91;100.00;98099.06;4965979;28;20308;-52
2022/09/06 03:29:51;;;;;;;50.55;9.32;;;;;;;20.13;100.00;98098.22;4966877;28;20026;-53
2022/09/06 03:32:17;;;;;;;43.40;8.65;;;;;;;20.55;100.00;98098.41;4966465;28;20150;-52
2022/09/06 03:34:42;;;;;;;39.58;8.40;;;;;;;20.55;100.00;98093.94;4966497;28;20034;-56
2022/09/06 03:37:07;;;;;;;39.58;8.65;;;;;;;20.29;100.00;98103.13;4965494;28;20648;-55
2022/09/06 03:39:33;;;;;;;37.13;8.13;;;;;;;20.21;100.00;98107.22;4966857;28;20029;-52
2022/09/06 03:41:58;;;;;;;41.15;9.63;;;;;;;20.15;100.00;98101.56;4970009;28;20510;-52
2022/09/06 03:44:23;;;;;;;42.88;9.40;;;;;;;19.77;100.00;98100.94;4970569;28;20030;-52
2022/09/06 03:46:50;;;;;;;35.90;9.15;;;;;;;19.96;100.00;98102.16;4970898;28;20081;-53
2022/09/06 03:49:15;;;;;;;41.10;9.63;;;;;;;19.79;100.00;98112.25;4969441;28;20042;-53
2022/09/06 03:51:41;;;;;;;36.15;8.75;;;;;;;20.34;100.00;98103.59;4969508;28;20157;-52
2022/09/06 03:54:06;;;;;;;43.78;9.80;;;;;;;20.09;100.00;98097.59;4971867;28;20125;-52
2022/09/06 03:56:31;;;;;;;39.08;9.50;;;;;;;19.54;100.00;98101.84;4969042;28;20074;-53
2022/09/06 03:58:58;;;;;;;36.88;8.73;;;;;;;19.84;100.00;98080.97;4970618;28;20030;-53
2022/09/06 04:01:23;;;;;;;40.22;9.25;;;;;;;19.77;100.00;98079.75;4969185;28;20069;-54
2022/09/06 04:03:48;;;;;;;35.75;8.68;;;;;;;20.13;100.00;98087.63;4986124;28;20113;-52
2022/09/06 04:06:14;;;;;;;43.67;9.52;;;;;;;19.98;100.00;98084.38;4971814;28;20043;-53
2022/09/06 04:08:39;;;;;;;34.50;9.07;;;;;;;19.96;100.00;98086.28;4971045;28;20050;-53
2022/09/06 04:11:05;;;;;;;39.35;9.30;;;;;;;19.72;100.00;98081.91;4971481;28;20541;-55
2022/09/06 04:13:32;;;;;;;38.33;8.55;;;;;;;20.12;100.00;98086.75;4972229;28;20085;-54
2022/09/06 04:15:57;;;;;;;36.25;9.23;;;;;;;19.97;100.00;98087.97;4970923;28;20144;-52
2022/09/06 04:18:23;;;;;;;39.28;9.20;;;;;;;20.15;100.00;98091.81;4970502;28;20109;-52
2022/09/06 04:20:51;;;;;;;37.05;9.20;;;;;;;20.16;100.00;98093.53;4967971;28;20045;-53
2022/09/06 04:23:17;;;;;;;42.50;10.43;;;;;;;19.95;100.00;98096.03;4967265;28;20025;-52
2022/09/06 04:25:47;;;;;;;35.45;8.93;;;;;;;20.07;100.00;98094.25;4969915;28;20123;-52
2022/09/06 04:28:12;;;;;;;39.10;9.52;;;;;;;19.87;100.00;98087.00;4970558;28;20114;-53
2022/09/06 04:30:38;;;;;;;36.67;9.50;;;;;;;20.06;100.00;98087.25;4970499;28;20045;-54
2022/09/06 04:33:03;;;;;;;31.40;8.20;;;;;;;20.67;100.00;98080.69;4968430;28;20050;-53
2022/09/06 04:35:28;;;;;;;38.83;9.68;;;;;;;20.17;100.00;98074.00;4969252;28;20046;-53
2022/09/06 04:37:54;;;;;;;39.13;10.25;;;;;;;20.17;100.00;98084.59;4968021;28;20027;-53
2022/09/06 04:40:19;;;;;;;35.63;8.57;;;;;;;20.56;100.00;98076.22;4971301;28;20019;-53
2022/09/06 04:42:45;;;;;;;43.63;9.68;;;;;;;20.41;100.00;98075.66;4968724;28;20050;-53
2022/09/06 04:45:10;;;;;;;30.35;9.20;;;;;;;20.17;100.00;98079.31;4969685;28;20117;-54
2022/09/06 04:47:36;;;;;;;37.22;8.15;;;;;;;21.02;100.00;98075.16;4968595;28;20023;-54
2022/09/06 04:50:02;;;;;;;33.10;8.35;;;;;;;21.02;100.00;98076.97;4970420;28;20051;-54
2022/09/06 04:52:27;;;;;;;39.72;9.20;;;;;;;20.88;100.00;98075.44;4968987;28;20042;-53
2022/09/06 04:54:53;;;;;;;51.63;9.98;;;;;;;20.66;100.00;98073.69;4969827;28;20567;-53
2022/09/06 04:57:18;;;;;;;42.28;10.55;;;;;;;20.60;100.00;98085.63;4969048;28;20081;-52
2022/09/06 04:59:43;;;;;;;46.33;9.43;;;;;;;21.16;100.00;98087.28;4968134;28;20281;-54
2022/09/06 05:02:09;;;;;;;45.53;10.20;;;;;;;20.99;100.00;98086.03;4967649;28;20142;-54
2022/09/06 05:04:34;;;;;;;45.95;11.18;;;;;;;21.14;100.00;98092.72;4968736;28;20130;-56
2022/09/06 05:07:05;;;;;;;51.30;10.38;;;;;;;21.00;100.00;98085.06;4968980;28;20043;-53
2022/09/06 05:09:32;;;;;;;37.95;10.13;;;;;;;20.79;100.00;98085.84;4968304;28;20020;-53
2022/09/06 05:11:58;;;;;;;46.97;11.82;;;;;;;20.84;100.00;98087.28;4967633;28;20579;-56
2022/09/06 05:14:24;;;;;;;41.17;11.05;;;;;;;20.64;100.00;98086.25;4968405;28;20035;-55
2022/09/06 05:16:50;;;;;;;38.65;10.45;;;;;;;20.70;100.00;98091.06;4982285;28;20298;-55
2022/09/06 05:19:16;;;;;;;40.67;10.48;;;;;;;21.21;100.00;98089.53;4983691;28;20690;-53
2022/09/06 05:21:41;;;;;;;37.78;8.63;;;;;;;22.19;100.00;98091.00;4965756;28;20160;-53
2022/09/06 05:24:07;;;;;;;43.40;10.65;;;;;;;20.92;100.00;98085.69;4967551;28;20456;-52
2022/09/06 05:26:32;;;;;;;39.45;10.25;;;;;;;21.12;100.00;98080.56;4969281;28;20063;-53
2022/09/06 05:28:58;;;;;;;41.47;9.38;;;;;;;21.85;100.00;98083.28;4968167;28;20492;-53
2022/09/06 05:31:32;;;;;;;40.15;10.00;;;;;;;22.26;100.00;98086.84;4968081;28;20073;-53
2022/09/06 05:33:58;;;;;;;35.45;9.60;;;;;;;21.97;100.00;98086.72;4968238;28;20030;-53
2022/09/06 05:36:25;;;;;;;46.90;10.50;;;;;;;21.85;100.00;98088.59;4967874;28;20038;-53
2022/09/06 05:38:55;;;;;;;40.08;9.23;;;;;;;21.90;100.00;98087.22;4970052;28;20027;-53
2022/09/06 05:41:22;;;;;;;56.00;10.77;;;;;;;21.42;100.00;98086.91;4965831;28;20039;-53
2022/09/06 05:43:47;;;;;;;36.70;8.38;;;;;;;22.00;100.00;98087.28;4967559;28;20030;-54
2022/09/06 05:46:14;;;;;;;38.35;9.48;;;;;;;21.67;100.00;98091.00;4967989;28;20513;-53
2022/09/06 05:48:39;;;;;;;39.28;9.30;;;;;;;22.14;100.00;98094.88;4967272;28;20065;-53
2022/09/06 05:51:13;;;;;;;47.63;9.77;;;;;;;22.99;100.00;98091.88;4967564;28;20113;-54
2022/09/06 05:53:41;;;;;;;46.83;10.65;;;;;;;23.74;100.00;98089.47;4967792;28;22636;-53
2022/09/06 05:56:07;;;;;;;36.67;9.18;;;;;;;24.26;100.00;98095.19;4965681;28;20085;-56
2022/09/06 05:58:33;;;;;;;44.03;10.00;;;;;;;23.79;100.00;98097.88;4967564;28;20718;-53
2022/09/06 06:01:13;;;;;;;43.78;9.48;;;;;;;23.32;100.00;98084.50;4968660;28;20504;-53
2022/09/06 06:03:39;;;;;;;46.92;9.68;;;;;;;23.42;100.00;98095.97;4967056;28;20030;-52
2022/09/06 06:06:04;;;;;;;37.30;9.90;;;;;;;24.08;100.00;98102.28;4966804;28;20070;-53
2022/09/06 06:08:30;;;;;;;47.53;10.65;;;;;;;24.74;100.00;98083.47;4967829;28;20027;-53
2022/09/06 06:10:59;;;;;;;40.60;10.10;;;;;;;24.86;100.00;98081.41;4967082;28;20034;-54
2022/09/06 06:13:27;;;;;;;36.97;9.55;;;;;;;25.46;100.00;98088.81;4969969;28;20034;-54
2022/09/06 06:15:52;;;;;;;40.65;11.32;;;;;;;25.30;100.00;98094.03;4964932;28;20049;-53
2022/09/06 06:18:18;;;;;;;36.50;9.38;;;;;;;24.95;100.00;98101.00;4965707;28;20026;-54
2022/09/06 06:20:43;;;;;;;42.08;9.57;;;;;;;25.63;100.00;98099.63;4965973;28;20437;-55
2022/09/06 06:23:09;;;;;;;35.72;9.18;;;;;;;24.46;100.00;98100.44;4965278;28;20034;-53
2022/09/06 06:25:34;;;;;;;34.05;8.38;;;;;;;24.50;100.00;98100.00;4970430;28;20367;-56
2022/09/06 06:27:59;;;;;;;36.25;9.38;;;;;;;25.84;100.00;98097.41;4965412;28;20030;-56
2022/09/06 06:30:25;;;;;;;37.10;9.02;;;;;;;26.71;100.00;98100.06;4968880;28;20283;-56
2022/09/06 06:32:50;;;;;;;45.25;9.70;;;;;;;28.25;100.00;98110.94;4967077;28;20416;-54
2022/09/06 06:35:15;;;;;;;32.88;8.15;;;;;;;28.50;100.00;98107.31;4964872;28;20027;-54
2022/09/06 06:37:41;;;;;;;32.60;8.00;;;;;;;29.88;100.00;98106.56;4966193;28;20030;-53
2022/09/06 06:40:07;;;;;;;29.23;7.80;;;;;;;30.47;96.72;98095.81;4968213;28;20049;-53
2022/09/06 06:42:32;;;;;;;28.05;7.68;;;;;;;29.74;96.96;98094.75;4967584;28;20137;-53
2022/09/06 06:44:58;;;;;;;41.38;9.30;;;;;;;28.32;100.00;98091.47;4968636;28;20125;-54
2022/09/06 06:47:23;;;;;;;25.30;7.70;;;;;;;28.45;100.00;98089.03;4965049;28;20668;-54
2022/09/06 06:49:48;;;;;;;32.05;7.95;;;;;;;28.50;100.00;98092.03;4965256;28;20034;-53
2022/09/06 06:52:14;;;;;;;31.35;8.50;;;;;;;28.75;100.00;98086.59;4965003;28;20044;-53
2022/09/06 06:54:40;;;;;;;29.95;8.10;;;;;;;29.21;100.00;98090.16;4967240;28;20514;-53
2022/09/06 06:57:08;;;;;;;27.52;8.20;;;;;;;28.93;100.00;98092.53;4965435;28;20824;-53
2022/09/06 06:59:33;;;;;;;24.23;7.53;;;;;;;29.30;99.09;98088.25;4966795;28;20026;-56
2022/09/06 07:01:59;;;;;;;29.23;8.13;;;;;;;31.12;90.16;98098.66;4963343;28;20049;-55
2022/09/06 07:04:24;;;;;;;23.80;7.72;;;;;;;31.25;85.33;98097.97;4970248;28;21158;-55
2022/09/06 07:06:55;;;;;;;22.95;7.15;;;;;;;32.17;81.34;98085.44;4968030;28;20142;-55
2022/09/06 07:09:21;;;;;;;24.98;7.55;;;;;;;30.90;84.16;98082.47;4969560;28;20035;-53
2022/09/06 07:11:50;;;;;;;25.02;7.13;;;;;;;31.53;83.48;98081.84;4969402;28;20122;-55
2022/09/06 07:14:16;;;;;;;25.58;7.82;;;;;;;31.43;84.00;98079.47;4968519;28;20073;-53
2022/09/06 07:16:42;;;;;;;19.00;6.10;;;;;;;32.94;75.91;98072.63;4969490;28;20731;-53
2022/09/06 07:19:08;;;;;;;27.30;6.75;;;;;;;35.08;64.79;98090.19;4969080;28;20048;-54
2022/09/06 07:21:33;;;;;;;20.08;6.60;;;;;;;32.91;71.40;98081.16;4967652;28;20062;-57
2022/09/06 07:23:59;;;;;;;23.60;7.00;;;;;;;33.90;65.95;98080.41;4969901;28;20464;-54
2022/09/06 07:26:27;;;;;;;19.63;6.50;;;;;;;33.79;65.33;98086.47;4968685;28;20270;-54
2022/09/06 07:28:58;;;;;;;20.45;6.43;;;;;;;32.92;68.60;98082.81;4968901;28;20101;-56
2022/09/06 07:31:23;;;;;;;21.33;6.57;;;;;;;31.33;72.10;98077.09;4981374;28;20594;-54
2022/09/06 07:33:49;;;;;;;20.20;6.40;;;;;;;35.71;61.51;98091.22;4971576;28;20038;-54
2022/09/06 07:36:15;;;;;;;19.55;6.63;;;;;;;34.79;58.86;98088.06;4975903;28;20113;-55
2022/09/06 07:38:40;;;;;;;21.83;6.05;;;;;;;32.84;66.30;98081.97;4967327;28;20105;-54
2022/09/06 07:41:08;;;;;;;23.73;6.68;;;;;;;31.13;69.38;98079.59;4967266;28;20485;-54
2022/09/06 07:43:35;;;;;;;23.48;6.70;;;;;;;31.12;73.93;98077.13;4967561;28;20411;-56
2022/09/06 07:46:02;;;;;;;21.55;6.72;;;;;;;33.29;63.75;98084.16;4968168;28;20045;-54
2022/09/06 07:48:29;;;;;;;18.88;6.05;;;;;;;33.57;61.75;98086.66;4970237;28;20088;-54
2022/09/06 07:50:54;;;;;;;31.95;7.38;;;;;;;33.72;66.42;98085.66;4970690;28;20129;-54
2022/09/06 07:53:20;;;;;;;22.30;6.18;;;;;;;34.12;61.33;98082.88;4967319;28;20031;-53
2022/09/06 07:55:45;;;;;;;25.27;7.28;;;;;;;30.28;73.07;98066.78;4968370;28;20049;-55
2022/09/06 07:58:10;;;;;;;20.42;6.38;;;;;;;30.68;74.54;98075.38;4976052;28;20014;-55
2022/09/06 08:00:37;;;;;;;25.20;7.25;;;;;;;31.46;71.42;98072.84;4967690;28;20062;-55
2022/09/06 08:03:02;;;;;;;24.40;6.63;;;;;;;33.64;63.88;98080.41;4968637;28;20169;-54
2022/09/06 08:05:28;;;;;;;18.27;6.22;;;;;;;32.63;66.15;98074.03;4967978;28;20039;-55
2022/09/06 08:07:53;;;;;;;29.40;6.90;;;;;;;33.14;63.95;98070.00;4969718;28;20117;-56
2022/09/06 08:10:18;;;;;;;19.73;6.68;;;;;;;32.28;67.87;98082.16;4968227;28;20054;-55
2022/09/06 08:12:44;;;;;;;24.15;7.28;;;;;;;32.50;69.30;98084.72;4967707;28;20107;-56
2022/09/06 08:15:09;;;;;;;23.70;7.25;;;;;;;31.37;70.94;98074.84;4967406;28;20457;-54
2022/09/06 08:17:35;;;;;;;22.08;6.72;;;;;;;31.58;72.11;98079.41;4967593;28;20471;-54
2022/09/06 08:20:03;;;;;;;25.77;7.47;;;;;;;31.95;70.75;98088.16;4968368;28;20018;-56
2022/09/06 08:22:32;;;;;;;20.75;6.93;;;;;;;30.18;78.08;98086.75;4968099;28;20078;-60
2022/09/06 08:24:57;;;;;;;24.52;7.10;;;;;;;30.67;74.68;98085.31;4968133;28;20483;-56
2022/09/06 08:27:23;;;;;;;24.48;7.88;;;;;;;30.51;78.47;98080.13;4968627;28;20125;-55
2022/09/06 08:29:48;;;;;;;20.17;6.55;;;;;;;30.48;79.16;98067.91;4973496;28;20121;-54
2022/09/06 08:32:14;;;;;;;25.15;7.22;;;;;;;30.72;80.21;98076.66;4968421;28;20116;-54
2022/09/06 08:34:39;;;;;;;25.52;7.10;;;;;;;31.45;74.22;98079.25;4971701;28;20571;-54
2022/09/06 08:37:06;;;;;;;28.17;7.50;;;;;;;31.55;74.55;98077.09;4970494;28;20200;-54
2022/09/06 08:39:31;;;;;;;21.52;6.38;;;;;;;32.06;69.72;98076.84;4971451;28;20565;-54
2022/09/06 08:42:04;;;;;;;20.27;6.68;;;;;;;33.03;66.21;98074.09;4970984;28;20035;-55
2022/09/06 08:44:52;;;;;;;21.55;6.28;;;;;;;35.21;58.51;98074.91;4972471;28;20053;-54
2022/09/06 08:47:20;;;;;;;24.40;6.90;;;;;;;34.74;60.26;98065.19;4967446;28;20961;-56
2022/09/06 08:49:53;;;;;;;20.35;6.45;;;;;;;31.96;67.47;98067.41;4970674;28;20034;-54
2022/09/06 08:52:57;;;;;;;22.63;6.68;;;;;;;33.17;62.69;98058.78;4970203;28;20042;-56
2022/09/06 08:55:32;;;;;;;24.50;6.68;;;;;;;32.94;61.24;98067.22;4969613;28;20404;-57
2022/09/06 08:58:29;;;;;;;20.77;6.10;;;;;;;33.01;62.48;98070.78;4972031;28;20062;-57
2022/09/06 09:01:24;;;;;;;24.42;6.30;;;;;;;33.98;59.32;98066.66;4971087;28;20449;-56
2022/09/06 09:03:55;;;;;;;24.98;6.53;;;;;;;33.13;63.27;98065.66;4970127;28;20066;-54
2022/09/06 09:06:22;;;;;;;;;;;;;;;34.31;60.24;98065.75;4970068;28;20053;-54
2022/09/06 09:09:09;;;;;;;19.95;5.72;;;;;;;35.13;56.18;98074.09;4971452;28;19945;-56
2022/09/06 09:11:36;;;;;;;23.50;6.28;;;;;;;34.33;56.07;98068.25;4970339;28;20046;-54
2022/09/06 09:14:14;;;;;;;13.95;5.00;;;;;;;35.77;52.99;98073.22;4972813;28;20033;-55
2022/09/06 09:16:40;;;;;;;23.33;6.78;;;;;;;34.41;54.85;98059.91;4970237;28;20115;-56
2022/09/06 09:19:06;;;;;;;19.85;5.72;;;;;;;35.13;55.94;98062.44;4970181;28;20019;-55
2022/09/06 09:21:35;;;;;;;20.48;6.07;;;;;;;35.00;53.68;98063.34;4970961;28;20457;-56
2022/09/06 09:24:09;;;;;;;16.33;5.32;;;;;;;35.74;51.55;98063.66;4969860;28;20022;-54
2022/09/06 09:26:43;;;;;;;22.70;6.15;;;;;;;33.66;56.99;98056.75;4970810;28;20137;-55
2022/09/06 09:29:11;;;;;;;22.08;6.28;;;;;;;33.72;58.30;98047.78;4971140;28;20023;-58
2022/09/06 09:31:50;;;;;;;17.70;5.53;;;;;;;36.75;50.13;98057.94;4970636;28;20053;-56
2022/09/06 09:34:37;;;;;;;20.50;6.40;;;;;;;34.44;57.14;98042.38;4971401;28;20030;-58
2022/09/06 09:37:22;;;;;;;19.85;5.35;;;;;;;34.60;54.19;98046.47;4969355;28;20042;-59
2022/09/06 09:39:51;;;;;;;19.92;6.15;;;;;;;35.14;52.81;98042.41;4969740;28;20066;-57
2022/09/06 09:42:35;;;;;;;15.18;5.47;;;;;;;34.92;52.08;98029.22;4969716;28;20039;-54
2022/09/06 09:45:05;;;;;;;16.95;5.93;;;;;;;33.65;56.16;98022.63;4972472;28;20029;-58
2022/09/06 09:47:32;;;;;;;15.85;5.68;;;;;;;34.95;54.25;98033.38;4971701;28;20039;-57
2022/09/06 09:49:58;;;;;;;21.73;6.75;;;;;;;36.13;51.25;98026.28;4970241;28;20031;-57
2022/09/06 09:52:29;;;;;;;16.25;5.50;;;;;;;35.45;51.91;98022.56;4969268;28;20042;-56
2022/09/06 09:54:59;;;;;;;17.85;5.43;;;;;;;34.97;52.79;98015.00;4971690;28;20030;-57
2022/09/06 09:57:25;;;;;;;18.23;5.60;;;;;;;36.17;53.39;98018.50;4970161;28;20515;-57
2022/09/06 09:59:54;;;;;;;21.60;5.93;;;;;;;34.01;56.33;97999.66;4971523;28;20069;-55
2022/09/06 10:02:26;;;;;;;17.88;5.55;;;;;;;36.74;51.67;98007.34;4970414;28;20121;-55
2022/09/06 10:05:15;;;;;;;17.20;5.60;;;;;;;35.18;51.30;98010.25;4970588;28;20041;-54
2022/09/06 10:07:44;;;;;;;17.42;5.55;;;;;;;37.68;47.14;98002.09;4970064;28;20075;-55
2022/09/06 10:10:14;;;;;;;18.80;6.03;;;;;;;37.29;48.14;97993.53;4969493;28;20121;-55
2022/09/06 10:12:41;;;;;;;19.02;5.45;;;;;;;38.52;46.03;98003.53;4970047;28;20038;-58
2022/09/06 10:15:09;;;;;;;21.00;6.35;;;;;;;38.27;49.17;97998.41;4970418;28;20109;-57
2022/09/06 10:17:37;;;;;;;16.30;5.85;;;;;;;35.76;51.30;97996.41;4970846;28;20085;-54
2022/09/06 10:20:07;;;;;;;14.77;5.28;;;;;;;36.60;52.27;98002.09;4969218;28;20015;-56
2022/09/06 10:22:50;;;;;;;16.65;5.05;;;;;;;35.79;49.75;97995.97;4971003;28;20046;-56
2022/09/06 10:25:37;;;;;;;16.75;5.45;;;;;;;35.95;48.72;97999.13;4968218;28;20027;-57
2022/09/06 10:28:30;;;;;;;18.90;5.32;;;;;;;35.78;46.78;97994.31;4969023;28;20643;-55
2022/09/06 10:31:01;;;;;;;20.88;5.82;;;;;;;35.27;49.65;97988.13;4970037;28;20062;-54
2022/09/06 10:33:35;;;;;;;;;;;;;;;35.42;50.34;97985.06;4969548;28;20134;-54
2022/09/06 10:36:02;;;;;;;16.38;5.32;;;;;;;35.98;49.82;97993.25;4968334;28;20300;-55
2022/09/06 10:38:40;;;;;;;17.27;5.65;;;;;;;36.58;46.28;97993.34;4968974;28;20029;-55
2022/09/06 10:41:08;;;;;;;18.73;5.45;;;;;;;37.17;47.19;97987.28;4970419;28;20038;-58
2022/09/06 10:43:45;;;;;;;16.88;5.40;;;;;;;36.58;45.13;97987.06;4968411;28;20026;-55
2022/09/06 10:46:14;;;;;;;17.98;4.97;;;;;;;36.54;48.33;97981.28;4969595;28;20030;-56
2022/09/06 10:48:46;;;;;;;15.75;4.68;;;;;;;36.10;44.91;97980.59;4967443;28;20042;-55
2022/09/06 10:51:20;;;;;;;23.95;5.25;;;;;;;36.06;45.83;97979.38;4968938;28;20042;-54
2022/09/06 10:53:56;;;;;;;17.40;4.70;;;;;;;35.53;48.06;97983.50;4969783;28;20038;-53
2022/09/06 10:56:21;;;;;;;18.27;5.30;;;;;;;35.29;47.92;97990.59;4968580;28;20042;-54
2022/09/06 10:59:10;;;;;;;17.63;5.23;;;;;;;36.46;45.11;97984.31;4969785;28;20097;-53
2022/09/06 11:01:53;;;;;;;17.05;5.32;;;;;;;35.96;46.43;97979.91;4963772;28;20043;-53
2022/09/06 11:04:27;;;;;;;18.95;5.35;;;;;;;35.46;47.82;97970.00;4968568;28;20530;-53
2022/09/06 11:06:59;;;;;;;15.15;5.43;;;;;;;36.69;47.24;97969.16;4967953;28;20039;-55
2022/09/06 11:09:37;;;;;;;15.73;4.80;;;;;;;34.58;51.94;97960.03;4969306;28;20045;-55
2022/09/06 11:12:06;;;;;;;16.90;5.40;;;;;;;34.55;51.24;97968.56;4970149;28;20117;-53
2022/09/06 11:14:34;;;;;;;15.32;5.15;;;;;;;35.82;48.32;97962.94;4983481;28;20034;-54
2022/09/06 11:17:09;;;;;;;22.85;5.45;;;;;;;34.64;48.78;97961.84;4967743;28;20045;-56
2022/09/06 11:19:48;;;;;;;11.82;4.43;;;;;;;36.04;47.17;97965.19;4970286;28;20568;-57
2022/09/06 11:22:25;;;;;;;15.88;4.97;;;;;;;35.60;47.49;97953.56;4968923;28;20034;-54
2022/09/06 11:25:00;;;;;;;19.55;5.63;;;;;;;35.48;49.30;97956.22;4968135;28;20066;-55
2022/09/06 11:27:50;;;;;;;17.02;5.10;;;;;;;34.55;50.25;97955.84;4969061;28;20038;-55
2022/09/06 11:30:17;;;;;;;19.20;5.28;;;;;;;35.13;51.09;97960.25;4969298;28;20042;-56